createdAt,value
2023-02-03T00:02:43.946Z,2.13
2023-02-03T00:07:46.109Z,2.58
2023-02-03T00:12:53.162Z,1.95
2023-02-03T00:17:55.249Z,2.22
2023-02-03T00:23:07.885Z,2.22
2023-02-03T00:28:10.229Z,2.40
2023-02-03T00:33:12.393Z,3.95
2023-02-03T00:38:14.517Z,4.38
2023-02-03T00:43:16.579Z,3.05
2023-02-03T00:48:18.675Z,3.70
2023-02-03T00:53:20.954Z,3.60
2023-02-03T00:58:23.469Z,2.92
2023-02-03T01:03:25.763Z,2.00
2023-02-03T01:08:27.835Z,2.45
2023-02-03T01:13:29.927Z,2.80
2023-02-03T01:18:32.029Z,2.45
2023-02-03T01:23:35.053Z,2.65
2023-02-03T01:28:37.986Z,2.85
2023-02-03T01:33:41.283Z,1.67
2023-02-03T01:38:43.554Z,1.63
2023-02-03T01:43:54.101Z,1.85
2023-02-03T01:49:19.171Z,1.70
2023-02-03T01:54:32.209Z,2.13
2023-02-03T01:59:35.604Z,1.92
2023-02-03T02:04:47.083Z,2.30
2023-02-03T02:09:50.069Z,3.10
2023-02-03T02:14:52.474Z,2.42
2023-02-03T02:20:22.096Z,2.40
2023-02-03T02:25:42.466Z,3.08
2023-02-03T02:31:14.478Z,3.33
2023-02-03T02:36:31.414Z,2.85
2023-02-03T02:41:51.167Z,2.20
2023-02-03T02:47:03.456Z,2.77
2023-02-03T02:52:08.717Z,2.38
2023-02-03T02:57:13.532Z,2.35
2023-02-03T03:02:15.799Z,1.98
2023-02-03T03:07:24.406Z,2.72
2023-02-03T03:12:34.838Z,2.30
2023-02-03T03:17:49.085Z,2.10
2023-02-03T03:22:59.730Z,2.15
2023-02-03T03:28:10.745Z,2.50
2023-02-03T03:33:13.101Z,2.17
2023-02-03T03:38:33.960Z,2.50
2023-02-03T03:43:42.733Z,2.10
2023-02-03T03:48:54.781Z,2.80
2023-02-03T03:54:01.092Z,2.35
2023-02-03T03:59:05.569Z,2.90
2023-02-03T04:04:11.592Z,3.00
2023-02-03T04:09:13.678Z,2.42
2023-02-03T04:14:15.831Z,3.10
2023-02-03T04:19:17.927Z,3.30
2023-02-03T04:24:20.052Z,2.97
2023-02-03T04:29:22.147Z,4.28
2023-02-03T04:34:24.287Z,4.35
2023-02-03T04:39:26.413Z,11.10
2023-02-03T04:44:28.533Z,5.20
2023-02-03T04:49:30.608Z,4.90
2023-02-03T04:54:32.757Z,3.72
2023-02-03T04:59:34.877Z,2.83
2023-02-03T05:04:37.045Z,2.10
2023-02-03T05:09:39.170Z,2.20
2023-02-03T05:14:41.271Z,1.80
2023-02-03T05:19:43.485Z,1.27
2023-02-03T05:24:45.746Z,1.20
2023-02-03T05:29:47.890Z,2.00
2023-02-03T05:34:49.968Z,0.95
2023-02-03T05:39:52.036Z,0.68
2023-02-03T05:44:54.093Z,0.52
2023-02-03T05:49:56.190Z,0.60
2023-02-03T05:54:58.313Z,1.00
2023-02-03T06:00:00.416Z,0.50
2023-02-03T06:05:02.515Z,1.00
2023-02-03T06:10:04.959Z,1.25
2023-02-03T06:15:07.390Z,0.60
2023-02-03T06:20:11.268Z,0.52
2023-02-03T06:25:14.713Z,1.30
2023-02-03T06:30:17.514Z,0.90
2023-02-03T06:35:19.656Z,1.05
2023-02-03T06:40:21.887Z,0.85
2023-02-03T06:45:25.206Z,1.17
2023-02-03T06:50:27.519Z,1.15
2023-02-03T06:55:29.972Z,2.30
2023-02-03T07:00:32.417Z,1.33
2023-02-03T07:05:36.382Z,1.90
2023-02-03T07:10:38.538Z,3.30
2023-02-03T07:15:41.287Z,1.67
2023-02-03T07:20:43.389Z,1.67
2023-02-03T07:25:45.756Z,1.40
2023-02-03T07:30:49.576Z,2.55
2023-02-03T07:35:55.298Z,1.10
2023-02-03T07:40:57.407Z,1.60
2023-02-03T07:46:00.067Z,1.20
2023-02-03T07:51:02.261Z,1.77
2023-02-03T07:56:05.954Z,4.50
2023-02-03T08:01:16.990Z,3.40
2023-02-03T08:06:19.220Z,2.55
2023-02-03T08:11:21.415Z,2.00
2023-02-03T08:16:23.662Z,2.08
2023-02-03T08:21:25.792Z,2.90
2023-02-03T08:26:27.904Z,1.77
2023-02-03T08:31:31.262Z,1.40
2023-02-03T08:36:33.516Z,1.30
2023-02-03T08:41:36.117Z,1.60
2023-02-03T08:46:43.879Z,0.40
2023-02-03T08:51:48.426Z,0.75
2023-02-03T08:56:51.319Z,1.10
2023-02-03T09:01:53.501Z,0.50
2023-02-03T09:06:56.061Z,1.00
2023-02-03T09:12:03.169Z,0.50
2023-02-03T09:17:07.820Z,0.82
2023-02-03T09:22:10.001Z,0.57
2023-02-03T09:27:13.611Z,0.77
2023-02-03T09:32:15.986Z,2.30
2023-02-03T09:37:18.315Z,1.05
2023-02-03T09:42:45.179Z,0.82
2023-02-03T09:47:54.305Z,0.43
2023-02-03T09:52:57.978Z,0.40
2023-02-03T09:58:12.711Z,0.50
2023-02-03T10:03:37.016Z,1.70
2023-02-03T10:09:22.115Z,1.05
2023-02-03T10:14:50.248Z,1.10
2023-02-03T10:20:13.349Z,1.35
2023-02-03T10:25:15.591Z,2.00
2023-02-03T10:30:25.940Z,1.30
2023-02-03T10:36:00.343Z,0.90
2023-02-03T10:41:03.696Z,0.77
2023-02-03T10:46:06.074Z,1.60
2023-02-03T10:51:20.110Z,2.40
2023-02-03T10:56:44.378Z,1.10
2023-02-03T11:01:49.715Z,1.50
2023-02-03T11:07:02.140Z,0.70
2023-02-03T11:12:16.822Z,0.90
2023-02-03T11:17:27.992Z,0.80
2023-02-03T11:22:40.704Z,1.55
2023-02-03T11:27:43.508Z,0.90
2023-02-03T11:32:48.276Z,1.67
2023-02-03T11:37:56.504Z,0.70
2023-02-03T11:42:58.741Z,1.98
2023-02-03T11:48:45.077Z,0.75
2023-02-03T11:54:13.074Z,1.00
2023-02-03T11:59:45.965Z,0.70
2023-02-03T12:04:51.035Z,1.05
2023-02-03T12:10:02.755Z,1.00
2023-02-03T12:15:51.108Z,0.85
2023-02-03T12:21:02.175Z,1.25
2023-02-03T12:26:46.004Z,0.90
2023-02-03T12:32:01.690Z,1.05
2023-02-03T12:37:17.736Z,1.10
2023-02-03T12:42:42.657Z,0.80
2023-02-03T12:48:01.063Z,0.98
2023-02-03T12:53:13.633Z,0.90
2023-02-03T12:58:37.079Z,1.08
2023-02-03T13:04:10.155Z,1.35
2023-02-03T13:09:44.852Z,1.50
2023-02-03T13:15:00.244Z,1.30
2023-02-03T13:20:16.205Z,1.10
2023-02-03T13:25:36.396Z,1.20
2023-02-03T13:30:56.459Z,1.40
2023-02-03T13:36:06.759Z,1.63
2023-02-03T13:41:38.975Z,1.13
2023-02-03T13:46:41.641Z,0.77
2023-02-03T13:51:46.550Z,1.77
2023-02-03T13:57:07.495Z,1.35
2023-02-03T14:02:27.544Z,1.00
2023-02-03T14:07:40.278Z,1.17
2023-02-03T14:12:51.487Z,2.92
2023-02-03T14:17:53.564Z,1.67
2023-02-03T14:23:12.571Z,2.28
2023-02-03T14:28:18.984Z,1.20
2023-02-03T14:33:26.045Z,1.90
2023-02-03T14:38:33.575Z,1.15
2023-02-03T14:43:52.363Z,1.17
2023-02-03T14:49:39.218Z,1.38
2023-02-03T14:55:19.763Z,6.72
2023-02-03T15:00:25.877Z,1.63
2023-02-03T15:05:29.659Z,1.52
2023-02-03T15:10:42.938Z,1.20
2023-02-03T15:15:45.988Z,2.55
2023-02-03T15:20:53.318Z,2.78
2023-02-03T15:26:14.007Z,2.03
2023-02-03T15:31:25.869Z,2.85
2023-02-03T15:36:39.860Z,2.30
2023-02-03T15:41:42.708Z,1.55
2023-02-03T15:46:52.219Z,2.20
2023-02-03T15:52:02.367Z,2.00
2023-02-03T16:02:21.209Z,2.03
2023-02-03T16:12:34.011Z,2.88
2023-02-03T16:17:39.560Z,4.53
2023-02-03T16:23:02.104Z,5.82
2023-02-03T16:28:31.036Z,6.35
2023-02-03T16:33:53.010Z,8.57
2023-02-03T16:39:14.310Z,6.28
2023-02-03T16:44:35.160Z,6.43
2023-02-03T16:49:56.042Z,8.55
2023-02-03T16:54:59.129Z,5.88
2023-02-03T17:00:01.297Z,6.28
2023-02-03T17:05:03.489Z,8.93
2023-02-03T17:10:05.985Z,5.03
2023-02-03T17:15:09.044Z,5.45
2023-02-03T17:20:11.475Z,5.43
2023-02-03T17:25:13.911Z,5.05
2023-02-03T17:30:16.692Z,6.03
2023-02-03T17:35:18.843Z,5.60
2023-02-03T17:56:42.324Z,18.55
2023-02-03T18:01:44.467Z,20.98
2023-02-03T18:06:46.845Z,21.52
2023-02-03T18:11:49.063Z,18.42
2023-02-03T18:16:51.263Z,14.43
2023-02-03T18:21:53.370Z,16.35
2023-02-03T18:26:56.183Z,19.95
2023-02-03T18:31:58.432Z,20.13
2023-02-03T18:37:00.605Z,16.02
2023-02-03T18:42:03.078Z,17.05
2023-02-03T18:47:08.778Z,18.08
2023-02-03T18:52:10.904Z,24.30
2023-02-03T18:57:16.085Z,14.38
2023-02-03T19:02:18.423Z,8.10
2023-02-03T19:07:20.663Z,5.95
2023-02-03T19:12:22.963Z,11.57
2023-02-03T19:17:25.255Z,11.32
2023-02-03T19:22:27.524Z,15.50
2023-02-03T19:27:29.622Z,10.10
2023-02-03T19:32:32.245Z,12.63
2023-02-03T19:37:34.452Z,11.55
2023-02-03T19:42:36.702Z,15.27
2023-02-03T19:47:38.882Z,29.70
2023-02-03T19:52:41.029Z,22.95
2023-02-03T19:57:43.228Z,21.92
2023-02-03T20:02:45.347Z,19.55
2023-02-03T20:07:47.843Z,23.45
2023-02-03T20:12:49.990Z,21.13
2023-02-03T20:17:52.164Z,19.27
2023-02-03T20:22:54.422Z,16.33
2023-02-03T20:27:58.502Z,17.13
2023-02-03T20:33:00.836Z,38.13
2023-02-03T20:38:02.978Z,29.67
2023-02-03T20:43:20.397Z,25.40
2023-02-03T20:48:25.794Z,23.60
2023-02-03T20:53:28.059Z,24.77
2023-02-03T20:58:34.839Z,25.17
2023-02-03T21:03:55.784Z,22.13
2023-02-03T21:09:20.008Z,17.95
2023-02-03T21:14:26.389Z,20.90
2023-02-03T21:19:33.911Z,17.08
2023-02-03T21:24:38.254Z,30.77
2023-02-03T21:29:41.307Z,23.45
2023-02-03T21:34:44.896Z,12.68
2023-02-03T21:39:48.434Z,12.55
2023-02-03T21:44:51.087Z,16.38
2023-02-03T21:49:53.450Z,15.15
2023-02-03T21:54:55.705Z,12.75
2023-02-03T21:59:58.052Z,12.18
2023-02-03T22:05:00.932Z,12.57
2023-02-03T22:10:03.077Z,8.10
2023-02-03T22:15:05.560Z,6.70
2023-02-03T22:20:08.246Z,7.38
2023-02-03T22:25:10.439Z,7.30
2023-02-03T22:30:16.612Z,8.15
2023-02-03T22:35:18.824Z,9.73
2023-02-03T22:40:22.189Z,8.63
2023-02-03T22:45:24.449Z,8.43
2023-02-03T22:50:35.570Z,8.73
2023-02-03T22:55:38.813Z,10.73
2023-02-03T23:00:41.181Z,11.30
2023-02-03T23:05:43.325Z,11.77
2023-02-03T23:10:45.470Z,13.00
2023-02-03T23:15:48.697Z,14.55
2023-02-03T23:20:50.945Z,14.30
2023-02-03T23:25:53.123Z,14.32
2023-02-03T23:30:56.412Z,12.73
2023-02-03T23:35:58.680Z,14.82
2023-02-03T23:41:00.889Z,12.32
2023-02-03T23:46:03.528Z,8.43
2023-02-03T23:51:06.136Z,5.57
2023-02-03T23:56:08.306Z,6.40
